Time;durP1;ratioP1;P1;durP2;ratioP2;P2;SDS_P1;SDS_P2;PMS_P1;PMS_P2;Temp;Humidity;BMP_temperature;BMP_pressure;BME280_temperature;BME280_humidity;BME280_pressure;Samples;Min_cycle;Max_cycle;Signal;HPM_P1;HPM_P2
2021/05/06 00:05:55;;;;;;;;;;;;;;;0.96;100.00;98092.88;5062518;28;19920;-77
2021/05/06 00:30:28;;;;;;;;;;;;;;;0.69;100.00;98074.22;5095254;28;19970;-77
2021/05/06 00:32:57;;;;;;;;;;;;;;;0.73;100.00;98069.53;5095147;28;19924;-77
2021/05/06 00:35:28;;;;;;;;;;;;;;;0.61;100.00;98072.59;5077110;28;19923;-77
2021/05/06 00:43:48;;;;;;;;;;;;;;;0.38;100.00;98064.56;5095115;28;19924;-77
2021/05/06 01:00:31;;;;;;;;;;;;;;;0.08;100.00;98060.41;5094600;28;19924;-77
2021/05/06 01:03:08;;;;;;;;;;;;;;;0.01;100.00;98061.13;5094749;28;19919;-77
2021/05/06 01:05:41;;;;;;;;;;;;;;;-0.01;100.00;98049.72;5093432;28;20350;-77
2021/05/06 01:08:15;;;;;;;;;;;;;;;0.07;100.00;98045.88;5076861;28;20324;-78
2021/05/06 01:11:07;;;;;;;;;;;;;;;0.12;100.00;98051.03;5094224;28;19920;-77
2021/05/06 01:13:32;;;;;;;;;;;;;;;0.16;100.00;98046.34;5094036;28;20383;-77
2021/05/06 01:15:59;;;;;;;;;;;;;;;0.18;100.00;98055.00;5076396;28;19924;-77
2021/05/06 01:18:44;;;;;;;;;;;;;;;0.17;100.00;98047.91;5094126;28;20386;-77
2021/05/06 01:21:11;;;;;;;;;;;;;;;0.11;100.00;98046.69;5076612;28;19946;-77
2021/05/06 01:23:41;;;;;;;;;;;;;;;0.15;100.00;98039.28;5094236;28;20403;-77
2021/05/06 01:26:15;;;;;;;;;;;;;;;0.12;100.00;98034.56;5075981;28;19927;-77
2021/05/06 01:28:45;;;;;;;;;;;;;;;0.06;100.00;98041.56;5076286;28;19985;-77
2021/05/06 01:31:19;;;;;;;;;;;;;;;0.03;100.00;98045.06;5093973;28;19931;-77
2021/05/06 01:36:24;;;;;;;;;;;;;;;0.07;100.00;98040.38;5075036;28;19924;-77
2021/05/06 01:41:51;;;;;;;;;;;;;;;0.29;100.00;98039.38;5093898;28;20413;-77
2021/05/06 01:49:49;;;;;;;;;;;;;;;0.26;100.00;98033.88;5093644;28;19989;-77
2021/05/06 02:00:51;;;;;;;;;;;;;;;0.21;100.00;98028.72;5067709;28;19920;-77
2021/05/06 02:03:20;;;;;;;;;;;;;;;0.22;100.00;98022.84;5093368;28;19927;-77
2021/05/06 02:05:52;;;;;;;;;;;;;;;0.25;100.00;98024.84;5093254;28;19946;-77
2021/05/06 02:08:20;;;;;;;;;;;;;;;0.17;100.00;98017.69;5075560;28;19942;-77
2021/05/06 02:10:50;;;;;;;;;;;;;;;0.14;100.00;98021.22;5075201;28;19919;-77
2021/05/06 02:13:27;;;;;;;;;;;;;;;0.24;100.00;98019.72;5093693;28;20384;-77
2021/05/06 02:16:02;;;;;;;;;;;;;;;0.26;100.00;98001.69;5108824;28;19927;-77
2021/05/06 02:18:31;;;;;;;;;;;;;;;0.39;100.00;98010.41;5108761;28;19924;-77
2021/05/06 02:20:58;;;;;;;;;;;;;;;0.46;100.00;98004.94;5075063;28;19920;-77
2021/05/06 02:23:25;;;;;;;;;;;;;;;0.53;100.00;98000.28;5075181;28;19973;-77
2021/05/06 02:25:52;;;;;;;;;;;;;;;0.57;100.00;97997.56;5093024;28;20333;-77
2021/05/06 02:28:18;;;;;;;;;;;;;;;0.62;100.00;97994.47;5092992;28;19973;-77
2021/05/06 02:30:45;;;;;;;;;;;;;;;0.54;100.00;97995.59;5093283;28;19927;-77
2021/05/06 02:33:11;;;;;;;;;;;;;;;0.49;100.00;97991.25;5093000;28;19976;-77
2021/05/06 02:35:39;;;;;;;;;;;;;;;0.47;100.00;97984.56;5092924;28;19935;-77
2021/05/06 02:38:06;;;;;;;;;;;;;;;0.48;100.00;97986.94;5092704;28;19923;-77
2021/05/06 02:40:33;;;;;;;;;;;;;;;0.45;100.00;97976.72;5092979;28;20399;-77
2021/05/06 02:43:00;;;;;;;;;;;;;;;0.46;100.00;97977.47;5074720;28;19920;-77
2021/05/06 02:45:27;;;;;;;;;;;;;;;0.39;100.00;97978.25;5074532;28;20283;-78
2021/05/06 02:47:53;;;;;;;;;;;;;;;0.29;100.00;97967.94;5057950;28;20280;-77
2021/05/06 02:50:23;;;;;;;;;;;;;;;0.28;100.00;97971.06;5091525;28;20268;-77
2021/05/06 02:53:05;;;;;;;;;;;;;;;0.28;100.00;97971.88;5092371;28;19958;-77
2021/05/06 02:55:53;;;;;;;;;;;;;;;0.27;100.00;97973.06;5092703;28;20323;-77
2021/05/06 02:58:37;;;;;;;;;;;;;;;0.37;100.00;97971.53;5092603;28;19931;-77
2021/05/06 03:03:50;;;;;;;;;;;;;;;0.36;100.00;97973.50;5092436;28;20267;-77
2021/05/06 03:06:25;;;;;;;;;;;;;;;0.40;100.00;97974.31;5092257;28;19920;-77
2021/05/06 03:09:09;;;;;;;;;;;;;;;0.40;100.00;97971.56;5092485;28;19920;-77
2021/05/06 03:11:48;;;;;;;;;;;;;;;0.55;100.00;97970.47;5097180;28;20292;-77
2021/05/06 03:25:00;;;;;;;;;;;;;;;0.82;100.00;97958.03;5092362;28;20071;-77
2021/05/06 03:27:31;;;;;;;;;;;;;;;0.72;100.00;97967.03;5092272;28;20003;-77
2021/05/06 03:30:25;;;;;;;;;;;;;;;0.79;100.00;97969.81;5092265;28;20014;-77
2021/05/06 04:18:38;;;;;;;;;;;;;;;2.06;100.00;97942.59;5012576;28;19929;-78
2021/05/06 04:37:33;;;;;;;;;;;;;;;1.84;100.00;97926.06;5013130;28;19925;-78
2021/05/06 04:40:06;;;;;;;;;;;;;;;1.89;100.00;97931.16;5012758;28;19928;-78
2021/05/06 04:45:36;;;;;;;;;;;;;;;1.73;100.00;97930.78;5012721;28;19964;-77
2021/05/06 04:53:44;;;;;;;;;;;;;;;1.80;100.00;97928.00;5053689;28;19927;-78
2021/05/06 05:06:23;;;;;;;;;;;;;;;1.70;100.00;97931.56;5054367;28;19927;-78
2021/05/06 05:25:20;;;;;;;;;;;;;;;2.01;100.00;97929.22;5038397;28;19928;-77
2021/05/06 05:27:48;;;;;;;;;;;;;;;2.18;100.00;97936.69;5046446;28;19986;-77
2021/05/06 05:30:17;;;;;;;;;;;;;;;2.29;100.00;97926.44;5042839;28;19979;-78
2021/05/06 05:32:58;;;;;;;;;;;;;;;2.83;100.00;97932.19;5049007;28;20332;-78
2021/05/06 05:35:38;;;;;;;;;;;;;;;3.13;100.00;97937.19;5039270;28;19986;-77
2021/05/06 05:54:35;;;;;;;;;;;;;;;4.27;100.00;97930.50;5048647;28;19959;-78
2021/05/06 05:57:08;;;;;;;;;;;;;;;4.47;100.00;97923.97;5045302;28;20006;-78
2021/05/06 05:59:35;;;;;;;;;;;;;;;4.67;100.00;97921.38;5046071;28;19928;-78
2021/05/06 06:02:03;;;;;;;;;;;;;;;4.72;100.00;97918.19;5048421;28;19986;-78
2021/05/06 06:04:30;;;;;;;;;;;;;;;4.81;100.00;97921.22;5066675;28;20321;-78
2021/05/06 06:06:57;;;;;;;;;;;;;;;5.28;100.00;97918.28;5048113;28;20012;-78
2021/05/06 06:09:23;;;;;;;;;;;;;;;5.66;100.00;97920.91;5038198;28;19925;-78
2021/05/06 06:11:50;;;;;;;;;;;;;;;5.82;100.00;97919.09;5033254;28;20380;-79
2021/05/06 06:14:47;;;;;;;;;;;;;;;5.83;100.00;97917.13;5031091;28;19925;-81
2021/05/06 06:17:03;;;;;;;;;;;;;;;5.56;100.00;97917.09;5022061;28;20300;-81
2021/05/06 06:19:35;;;;;;;;;;;;;;;5.12;100.00;97901.47;5052923;28;19920;-80
2021/05/06 06:22:07;;;;;;;;;;;;;;;4.89;100.00;97898.59;5037718;28;20343;-79
2021/05/06 06:24:34;;;;;;;;;;;;;;;4.70;100.00;97899.22;5072544;28;19924;-80
2021/05/06 06:27:01;;;;;;;;;;;;;;;4.76;100.00;97903.09;5079270;28;20354;-80
2021/05/06 06:29:32;;;;;;;;;;;;;;;4.81;100.00;97910.16;5072611;28;19920;-80
2021/05/06 06:32:01;;;;;;;;;;;;;;;4.78;100.00;97906.25;5079557;28;20019;-80
2021/05/06 06:34:27;;;;;;;;;;;;;;;4.66;100.00;97906.78;5054888;28;20295;-79
2021/05/06 06:36:56;;;;;;;;;;;;;;;4.49;100.00;97916.06;5072048;28;20391;-79
2021/05/06 06:39:26;;;;;;;;;;;;;;;4.25;100.00;97917.06;5072614;28;19981;-80
2021/05/06 06:41:53;;;;;;;;;;;;;;;4.06;100.00;97916.88;5054945;28;20061;-80
2021/05/06 06:44:24;;;;;;;;;;;;;;;3.84;100.00;97919.00;5087576;28;19926;-80
2021/05/06 06:47:00;;;;;;;;;;;;;;;3.76;100.00;97919.47;5073346;28;19921;-80
2021/05/06 06:49:32;;;;;;;;;;;;;;;3.64;100.00;97929.00;5088760;28;20356;-80
2021/05/06 06:51:59;;;;;;;;;;;;;;;3.64;100.00;97926.25;5073511;28;19924;-79
2021/05/06 06:54:27;;;;;;;;;;;;;;;3.60;100.00;97931.03;5073190;28;19921;-80
2021/05/06 06:56:56;;;;;;;;;;;;;;;3.70;100.00;97924.63;5073430;28;20372;-79
2021/05/06 06:59:22;;;;;;;;;;;;;;;3.68;100.00;97935.31;5073081;28;19927;-79
2021/05/06 07:01:49;;;;;;;;;;;;;;;4.17;100.00;97940.44;5054970;28;19921;-79
2021/05/06 07:04:16;;;;;;;;;;;;;;;4.50;100.00;97941.75;5073236;28;19932;-79
2021/05/06 07:06:42;;;;;;;;;;;;;;;4.61;100.00;97945.97;5073166;28;20441;-80
2021/05/06 07:09:10;;;;;;;;;;;;;;;4.77;100.00;97937.88;5087232;28;20021;-80
2021/05/06 07:11:37;;;;;;;;;;;;;;;4.88;100.00;97941.31;5047588;28;19920;-79
2021/05/06 07:14:05;;;;;;;;;;;;;;;4.94;100.00;97942.44;5058724;28;19925;-79
2021/05/06 07:16:32;;;;;;;;;;;;;;;4.69;100.00;97928.09;5093211;28;19985;-77
2021/05/06 07:18:59;;;;;;;;;;;;;;;4.45;100.00;97936.66;5093123;28;19920;-77
2021/05/06 07:21:26;;;;;;;;;;;;;;;4.35;100.00;97932.78;5093106;28;19928;-78
2021/05/06 07:23:54;;;;;;;;;;;;;;;4.36;100.00;97928.03;5067946;28;20291;-78
2021/05/06 07:26:23;;;;;;;;;;;;;;;4.83;100.00;97930.69;5093068;28;19924;-79
2021/05/06 07:28:50;;;;;;;;;;;;;;;5.41;100.00;97927.59;5075185;28;19920;-76
2021/05/06 07:31:18;;;;;;;;;;;;;;;5.42;100.00;97923.59;5108432;28;19919;-78
2021/05/06 07:33:46;;;;;;;;;;;;;;;5.16;100.00;97918.84;5065815;28;19920;-79
2021/05/06 07:36:17;;;;;;;;;;;;;;;4.91;100.00;97910.03;5097070;28;19928;-79
2021/05/06 07:38:45;;;;;;;;;;;;;;;4.84;100.00;97912.91;5070388;28;20267;-79
2021/05/06 07:41:13;;;;;;;;;;;;;;;4.61;100.00;97906.44;5096828;28;19927;-79
2021/05/06 07:43:44;;;;;;;;;;;;;;;4.38;100.00;97909.03;5058611;28;20380;-80
2021/05/06 07:46:13;;;;;;;;;;;;;;;4.08;100.00;97917.22;5056056;28;19970;-79
2021/05/06 07:48:41;;;;;;;;;;;;;;;3.93;100.00;97908.28;5071759;28;19928;-80
2021/05/06 07:51:14;;;;;;;;;;;;;;;4.48;100.00;97903.44;5061040;28;21227;-79
2021/05/06 07:53:48;;;;;;;;;;;;;;;5.45;100.00;97905.38;5081324;28;20442;-79
2021/05/06 07:56:16;;;;;;;;;;;;;;;6.20;100.00;97903.84;5085176;28;19946;-81
2021/05/06 07:58:43;;;;;;;;;;;;;;;6.69;100.00;97904.94;5083068;28;19920;-80
2021/05/06 08:01:10;;;;;;;;;;;;;;;7.47;100.00;97899.34;5050168;28;20037;-78
2021/05/06 08:03:37;;;;;;;;;;;;;;;7.46;100.00;97903.34;5053201;28;19920;-79
2021/05/06 08:06:04;;;;;;;;;;;;;;;6.49;100.00;97895.78;5070808;28;19932;-78
2021/05/06 08:08:31;;;;;;;;;;;;;;;5.84;100.00;97896.50;5072920;28;19920;-78
2021/05/06 08:10:58;;;;;;;;;;;;;;;5.23;100.00;97899.34;5055313;28;19920;-75
2021/05/06 08:13:26;;;;;;;;;;;;;;;5.36;100.00;97891.28;5078397;28;19930;-83
2021/05/06 08:15:56;;;;;;;;;;;;;;;6.08;100.00;97892.53;5077802;28;20363;-78
2021/05/06 08:18:24;;;;;;;;;;;;;;;6.53;100.00;97894.50;5062435;28;19926;-76
2021/05/06 08:20:51;;;;;;;;;;;;;;;6.92;100.00;97885.44;5083744;28;19921;-77
2021/05/06 08:23:18;;;;;;;;;;;;;;;8.16;100.00;97887.78;5083093;28;19994;-78
2021/05/06 08:25:45;;;;;;;;;;;;;;;8.85;100.00;97889.94;5069951;28;19928;-78
2021/05/06 08:28:11;;;;;;;;;;;;;;;9.84;100.00;97885.00;5070600;28;19924;-78
2021/05/06 08:30:39;;;;;;;;;;;;;;;9.79;100.00;97891.13;5084710;28;19927;-78
2021/05/06 08:33:06;;;;;;;;;;;;;;;8.69;100.00;97886.41;5063973;28;20271;-78
2021/05/06 08:35:32;;;;;;;;;;;;;;;7.91;100.00;97884.00;5080516;28;19924;-78
2021/05/06 08:37:59;;;;;;;;;;;;;;;8.49;100.00;97894.91;5071682;28;19924;-78
2021/05/06 08:40:26;;;;;;;;;;;;;;;8.94;100.00;97884.50;5054013;28;19924;-80
2021/05/06 08:42:54;;;;;;;;;;;;;;;8.16;100.00;97884.22;5079583;28;19935;-79
2021/05/06 08:45:31;;;;;;;;;;;;;;;9.12;100.00;97884.78;5062301;28;19921;-80
2021/05/06 08:47:58;;;;;;;;;;;;;;;8.97;100.00;97883.63;5081806;28;19927;-79
2021/05/06 08:50:25;;;;;;;;;;;;;;;8.83;100.00;97886.81;5085001;28;19956;-79
2021/05/06 08:52:52;;;;;;;;;;;;;;;8.10;100.00;97889.53;5071920;28;19920;-80
2021/05/06 08:55:19;;;;;;;;;;;;;;;8.28;100.00;97881.53;5063689;28;19943;-81
2021/05/06 08:57:45;;;;;;;;;;;;;;;8.44;100.00;97877.94;5083474;28;19924;-81
2021/05/06 09:00:12;;;;;;;;;;;;;;;8.22;100.00;97882.47;5087595;28;19924;-82
2021/05/06 09:02:46;;;;;;;;;;;;;;;8.94;100.00;97878.94;5074541;28;19944;-76
2021/05/06 09:05:13;;;;;;;;;;;;;;;9.60;100.00;97875.41;5070707;28;19920;-77
2021/05/06 09:07:44;;;;;;;;;;;;;;;9.64;100.00;97881.63;5052352;28;19959;-77
2021/05/06 09:10:11;;;;;;;;;;;;;;;9.66;100.00;97883.97;5106454;28;19920;-77
2021/05/06 09:12:38;;;;;;;;;;;;;;;9.76;100.00;97880.06;5090636;28;20319;-78
2021/05/06 09:15:17;;;;;;;;;;;;;;;9.07;100.00;97885.31;5091722;28;19924;-77
2021/05/06 09:17:44;;;;;;;;;;;;;;;7.81;100.00;97865.59;5091116;28;19989;-77
2021/05/06 09:20:16;;;;;;;;;;;;;;;7.57;100.00;97864.97;5073361;28;19920;-77
2021/05/06 09:22:44;;;;;;;;;;;;;;;7.29;100.00;97871.16;5090627;28;19983;-77
2021/05/06 09:25:24;;;;;;;;;;;;;;;7.22;100.00;97876.88;5090936;28;20371;-77
2021/05/06 09:28:17;;;;;;;;;;;;;;;7.31;100.00;97871.53;5090897;28;20487;-79
2021/05/06 09:30:59;;;;;;;;;;;;;;;7.85;100.00;97882.97;5048335;28;20019;-76
2021/05/06 09:33:32;;;;;;;;;;;;;;;7.35;100.00;97877.78;5068068;28;19921;-76
2021/05/06 09:36:16;;;;;;;;;;;;;;;6.81;100.00;97884.88;5078688;28;19928;-75
2021/05/06 09:39:01;;;;;;;;;;;;;;;6.54;100.00;97884.22;5059953;28;19925;-75
2021/05/06 09:42:07;;;;;;;;;;;;;;;6.90;100.00;97882.31;5084459;28;19927;-75
2021/05/06 09:44:53;;;;;;;;;;;;;;;7.37;100.00;97886.47;5062593;28;19920;-75
2021/05/06 09:47:31;;;;;;;;;;;;;;;7.30;100.00;97872.72;5071855;28;19920;-76
2021/05/06 09:49:58;;;;;;;;;;;;;;;7.19;100.00;97874.97;5071413;28;19920;-76
2021/05/06 09:52:25;;;;;;;;;;;;;;;7.49;100.00;97876.66;5075056;28;20341;-78
2021/05/06 09:54:52;;;;;;;;;;;;;;;7.64;100.00;97867.59;5064314;28;19920;-77
2021/05/06 09:57:30;;;;;;;;;;;;;;;7.53;100.00;97869.81;5073429;28;19920;-78
2021/05/06 12:47:48;;;;;;;;;;;;;;;8.85;100.00;97783.31;5066317;28;20021;-74
2021/05/06 12:50:18;;;;;;;;;;;;;;;8.82;100.00;97812.84;5065650;28;19924;-74
2021/05/06 12:52:45;;;;;;;;;;;;;;;8.66;100.00;97812.88;5072969;28;20018;-76
2021/05/06 12:55:38;;;;;;;;;;;;;;;8.21;100.00;97822.47;5074752;28;19927;-76
2021/05/06 12:58:13;;;;;;;2.72;1.00;;;;;;;7.55;100.00;97808.22;5073532;28;19928;-76
2021/05/06 13:00:46;;;;;;;;;;;;;;;7.66;100.00;97831.81;5075179;28;20040;-77
2021/05/06 13:03:13;;;;;;;;;;;;;;;7.67;100.00;97830.56;5074956;28;19927;-76
2021/05/06 13:05:43;;;;;;;;;;;;;;;7.93;100.00;97837.88;5074911;28;19963;-76
2021/05/06 13:08:10;;;;;;;;;;;;;;;7.98;100.00;97844.91;5084908;28;20074;-77
2021/05/06 13:10:38;;;;;;;;;;;;;;;8.20;100.00;97846.72;5090172;28;20019;-77
2021/05/06 13:13:05;;;;;;;;;;;;;;;7.80;100.00;97833.47;5087329;28;20335;-77
2021/05/06 13:15:52;;;;;;;;;;;;;;;7.73;100.00;97833.59;5122509;27;19924;-77
2021/05/06 13:18:19;;;;;;;;;;;;;;;8.19;100.00;97836.81;5093252;28;19927;-77
2021/05/06 13:20:47;;;;;;;;;;;;;;;8.42;100.00;97841.41;5090899;28;19935;-77
2021/05/06 13:23:14;;;;;;;;;;;;;;;8.18;100.00;97837.25;5091914;28;19920;-77
2021/05/06 13:25:42;;;;;;;;;;;;;;;8.34;100.00;97829.69;5087191;28;20379;-76
2021/05/06 13:28:16;;;;;;;;;;;;;;;8.42;100.00;97831.06;5118553;27;20066;-77
2021/05/06 13:30:43;;;;;;;;;;;;;;;8.48;100.00;97840.44;5072226;28;19924;-77
2021/05/06 13:33:40;;;;;;;;;;;;;;;8.36;100.00;97827.25;5071814;28;19921;-76
2021/05/06 13:36:08;;;;;;;;;;;;;;;8.36;100.00;97860.63;5082376;28;19931;-77
2021/05/06 13:38:47;;;;;;;;;;;;;;;7.95;100.00;97860.47;5073424;28;19927;-77
2021/05/06 13:41:15;;;;;;;;;;;;;;;7.55;100.00;97875.72;5100471;28;19920;-76
2021/05/06 13:43:42;;;;;;;;;;;;;;;7.22;100.00;97874.84;5073642;28;19920;-77
2021/05/06 13:46:09;;;;;;;;;;;;;;;6.44;100.00;97879.63;5067447;28;19920;-77
2021/05/06 13:48:36;;;;;;;;;;;;;;;5.79;100.00;97875.56;5099719;28;19999;-75
2021/05/06 13:51:09;;;;;;;;;;;;;;;5.76;100.00;97872.84;5072245;28;19928;-76
2021/05/06 13:53:36;;;;;;;;;;;;;;;5.63;100.00;97889.28;5072903;28;19967;-76
2021/05/06 13:56:03;;;;;;;;;;;;;;;5.67;100.00;97889.22;5071305;28;19927;-75
2021/05/06 13:58:33;;;;;;;;;;;;;;;5.77;100.00;97888.28;5071946;28;19942;-77
2021/05/06 14:01:00;;;;;;;;;;;;;;;5.72;100.00;97897.84;5071115;28;19925;-77
2021/05/06 14:03:28;;;;;;;;;;;;;;;5.85;100.00;97914.69;5073079;28;20449;-76
2021/05/06 14:05:54;;;;;;;;;;;;;;;5.54;100.00;97898.09;5072713;28;19928;-76
2021/05/06 14:08:23;;;;;;;;;;;;;;;5.44;100.00;97892.72;5073115;28;19920;-76
2021/05/06 14:10:50;;;;;;;;;;;;;;;5.65;100.00;97886.09;5071273;28;20018;-77
2021/05/06 14:13:17;;;;;;;;;;;;;;;5.63;100.00;97873.44;5071650;28;20007;-76
2021/05/06 14:15:45;;;;;;;;;;;;;;;5.76;100.00;97856.22;5071107;28;19920;-76
2021/05/06 14:18:12;;;;;;;;;;;;;;;5.81;100.00;97877.91;5088867;28;20325;-77
2021/05/06 14:20:39;;;;;;;;;;;;;;;5.62;100.00;97856.47;5072376;28;19928;-76
2021/05/06 14:23:06;;;;;;;;;;;;;;;5.47;100.00;97870.53;5072693;28;20400;-77
2021/05/06 14:25:34;;;;;;;;;;;;;;;5.47;100.00;97889.91;5097785;28;20389;-77
2021/05/06 14:28:02;;;;;;;;;;;;;;;5.56;100.00;97883.84;5072532;28;20021;-77
2021/05/06 14:30:29;;;;;;;;;;;;;;;5.91;100.00;97883.31;5072383;28;19927;-77
2021/05/06 14:32:55;;;;;;;;;;;;;;;5.75;100.00;97891.47;5072037;28;20065;-77
2021/05/06 14:35:22;;;;;;;;;;;;;;;5.87;100.00;97881.81;5075023;28;19935;-76
2021/05/06 14:37:49;;;;;;;;;;;;;;;5.78;100.00;97873.22;5072434;28;19920;-76
2021/05/06 14:40:15;;;;;;;;;;;;;;;5.64;100.00;97888.06;5071358;28;20371;-76
2021/05/06 14:42:42;;;;;;;;;;;;;;;5.44;100.00;97881.63;5071416;28;19967;-77
2021/05/06 14:45:09;;;;;;;;;;;;;;;5.74;100.00;97876.03;5071449;28;19927;-77
2021/05/06 14:47:37;;;;;;;;;;;;;;;5.94;100.00;97870.63;5071082;28;19933;-77
2021/05/06 14:50:04;;;;;;;;;;;;;;;6.13;100.00;97867.91;5072044;28;19924;-77
2021/05/06 14:52:31;;;;;;;;;;;;;;;6.08;100.00;97875.91;5071386;28;19928;-77
2021/05/06 14:54:57;;;;;;;;;;;;;;;5.94;100.00;97876.16;5072396;28;20283;-77
2021/05/06 14:57:25;;;;;;;;;;;;;;;5.85;100.00;97862.03;5072762;28;20363;-77
2021/05/06 14:59:51;;;;;;;;;;;;;;;5.93;100.00;97874.59;5071680;28;20396;-77
2021/05/06 15:02:18;;;;;;;;;;;;;;;6.07;100.00;97868.81;5071811;28;19952;-77
2021/05/06 15:04:45;;;;;;;;;;;;;;;5.99;100.00;97865.38;5072124;28;19920;-77
2021/05/06 15:07:11;;;;;;;;;;;;;;;6.20;100.00;97878.88;5072104;28;19921;-77
2021/05/06 15:09:38;;;;;;;;;;;;;;;6.34;100.00;97861.19;5072227;28;19973;-77
2021/05/06 15:12:05;;;;;;;;;;;;;;;6.17;100.00;97870.59;5072115;28;19963;-77
2021/05/06 15:14:32;;;;;;;;;;;;;;;5.98;100.00;97866.59;5072019;28;19947;-77
2021/05/06 15:17:00;;;;;;;;;;;;;;;6.00;100.00;97863.41;5072299;28;21397;-76
2021/05/06 15:19:26;;;;;;;;;;;;;;;5.97;100.00;97876.09;5104499;28;19924;-76
2021/05/06 15:21:53;;;;;;;;;;;;;;;6.02;100.00;97877.59;5069297;28;19927;-76
2021/05/06 15:24:27;;;;;;;;;;;;;;;5.81;100.00;97875.16;5072771;28;20015;-76
2021/05/06 15:26:54;;;;;;;;;;;;;;;5.64;100.00;97877.00;5100688;28;20296;-76
2021/05/06 15:29:20;;;;;;;;;;;;;;;5.76;100.00;97875.63;5060809;28;19920;-76
2021/05/06 15:31:47;;;;;;;;;;;;;;;5.82;100.00;97862.88;5088676;28;19931;-76
2021/05/06 15:34:14;;;;;;;;;;;;;;;6.22;100.00;97856.25;5086408;28;19920;-76
2021/05/06 15:36:40;;;;;;;;;;;;;;;6.21;100.00;97857.47;5083190;28;19925;-76
2021/05/06 15:39:08;;;;;;;;;;;;;;;6.28;100.00;97858.13;5082084;28;19935;-76
2021/05/06 15:41:35;;;;;;;;;;;;;;;6.00;100.00;97861.38;5070156;28;19927;-76
2021/05/06 15:44:02;;;;;;;;;;;;;;;5.91;100.00;97854.84;5071349;28;19927;-76
2021/05/06 15:46:32;;;;;;;;;;;;;;;5.77;100.00;97861.34;5071546;28;20015;-76
2021/05/06 15:49:00;;;;;;;;;;;;;;;5.38;100.00;97869.47;5054656;28;19920;-76
2021/05/06 15:51:28;;;;;;;;;;;;;;;4.97;100.00;97880.69;5058398;28;19943;-76
2021/05/06 15:54:00;;;;;;;;;;;;;;;4.66;100.00;97876.34;5102491;28;19955;-76
2021/05/06 15:56:28;;;;;;;;;;;;;;;4.48;100.00;97884.06;5073871;28;19935;-76
2021/05/06 15:58:56;;;;;;;;;;;;;;;4.48;100.00;97883.28;5077975;28;20303;-76
2021/05/06 16:01:23;;;;;;;;;;;;;;;4.67;100.00;97866.84;5075227;28;20011;-76
2021/05/06 16:04:01;;;;;;;;;;;;;;;4.93;100.00;97865.34;5074901;28;19936;-76
2021/05/06 16:06:28;;;;;;;;;;;;;;;5.11;100.00;97872.22;5077965;28;20010;-76
2021/05/06 16:08:55;;;;;;;;;;;;;;;5.18;100.00;97874.88;5092656;28;19924;-77
2021/05/06 16:11:21;;;;;;;;;;;;;;;5.12;100.00;97876.56;5080428;28;20474;-76
2021/05/06 16:13:48;;;;;;;;;;;;;;;5.13;100.00;97871.81;5075018;28;19921;-76
2021/05/06 16:16:14;;;;;;;;;;;;;;;5.48;100.00;97871.31;5072469;28;20402;-76
2021/05/06 16:18:46;;;;;;;;;;;;;;;5.58;100.00;97871.16;5073487;28;19970;-76
2021/05/06 16:21:14;;;;;;;;;;;;;;;5.42;100.00;97868.22;5080874;28;19997;-77
2021/05/06 16:23:41;;;;;;;;;;;;;;;5.33;100.00;97859.63;5077867;28;20260;-77
2021/05/06 16:26:10;;;;;;;;;;;;;;;5.32;100.00;97871.94;5074118;28;19928;-76
2021/05/06 16:28:37;;;;;;;;;;;;;;;5.43;100.00;97866.22;5074812;28;19931;-77
2021/05/06 16:31:04;;;;;;;;;;;;;;;5.55;100.00;97860.91;5074646;28;20505;-77
2021/05/06 16:33:34;;;;;;;;;;;;;;;5.62;100.00;97870.31;5086358;28;19942;-77
2021/05/06 16:41:25;;;;;;;;;;;;;;;5.62;100.00;97860.00;5093531;28;19952;-77
2021/05/06 16:44:26;;;;;;;;;;;;;;;5.63;100.00;97880.19;5084133;28;19948;-77
2021/05/06 16:46:51;;;;;;;;;;;;;;;5.62;100.00;97878.63;5066142;28;19923;-77
2021/05/06 16:49:19;;;;;;;;;;;;;;;5.58;100.00;97884.22;5085763;28;19935;-77
2021/05/06 16:51:46;;;;;;;;;;;;;;;5.43;100.00;97875.34;5109619;27;19920;-76
2021/05/06 16:54:14;;;;;;;;;;;;;;;5.45;100.00;97895.06;5070282;28;19920;-77
2021/05/06 16:56:41;;;;;;;;;;;;;;;5.40;100.00;97884.47;5075881;28;19920;-78
2021/05/06 16:59:07;;;;;;;;;;;;;;;5.33;100.00;97898.41;5083742;28;19927;-77
2021/05/06 17:01:37;;;;;;;;;;;;;;;5.20;100.00;97894.66;5092001;28;20294;-77
2021/05/06 17:04:04;;;;;;;;;;;;;;;5.16;100.00;97899.47;5088426;28;20333;-77
2021/05/06 17:06:31;;;;;;;;;;;;;;;5.02;100.00;97894.09;5074919;28;20019;-76
2021/05/06 17:08:58;;;;;;;;;;;;;;;4.84;100.00;97879.69;5078341;28;20440;-76
2021/05/06 17:11:25;;;;;;;;;;;;;;;4.83;100.00;97902.25;5079695;28;19959;-76
2021/05/06 17:13:52;;;;;;;;;;;;;;;4.79;100.00;97902.28;5086080;28;19921;-76
2021/05/06 17:16:18;;;;;;;;;;;;;;;4.80;100.00;97895.53;5086223;28;20330;-76
2021/05/06 17:18:46;;;;;;;;;;;;;;;4.81;100.00;97908.19;5074181;28;19927;-76
2021/05/06 17:21:13;;;;;;;;;;;;;;;4.85;100.00;97928.31;5078625;28;19920;-76
2021/05/06 17:23:39;;;;;;;;;;;;;;;4.81;100.00;97927.56;5091145;28;19977;-76
2021/05/06 17:26:06;;;;;;;;;;;;;;;4.77;100.00;97932.34;5074990;28;20003;-76
2021/05/06 17:28:33;;;;;;;;;;;;;;;4.73;100.00;97931.59;5076887;28;20376;-76
2021/05/06 17:31:00;;;;;;;;;;;;;;;4.67;100.00;97938.78;5089416;28;19931;-76
2021/05/06 17:33:26;;;;;;;;;;;;;;;4.62;100.00;97946.75;5082532;28;20298;-77
2021/05/06 17:35:53;;;;;;;;;;;;;;;4.54;100.00;97961.84;5083840;28;20330;-76
2021/05/06 17:38:25;;;;;;;;;;;;;;;4.23;100.00;97958.16;5071325;28;20424;-76
2021/05/06 17:41:05;;;;;;;;;;;;;;;4.02;100.00;97949.25;5075791;28;20015;-77
2021/05/06 17:43:48;;;;;;;;;;;;;;;3.82;100.00;97949.00;5066456;28;20023;-77
2021/05/06 17:46:36;;;;;;;;;;;;;;;3.73;100.00;97960.53;5064711;28;20398;-77
2021/05/06 17:49:26;;;;;;;;;;;;;;;3.69;100.00;97967.25;5077352;28;19928;-77
2021/05/06 17:52:10;;;;;;;;;;;;;;;3.79;100.00;97963.63;5098013;27;19927;-77
2021/05/06 17:54:50;;;;;;;;;;;;;;;3.91;100.00;97954.88;5068982;28;19920;-76
2021/05/06 17:57:34;;;;;;;;;;;;;;;3.96;100.00;97964.69;5080600;28;20264;-76
2021/05/06 18:00:25;;;;;;;;;;;;;;;4.11;100.00;97955.91;5068602;28;19920;-76
2021/05/06 18:02:59;;;;;;;;;;;;;;;4.26;100.00;97971.19;5067875;28;19920;-76
2021/05/06 18:05:52;;;;;;;;;;;;;;;4.40;100.00;97956.44;5061138;28;19920;-77
2021/05/06 18:08:57;;;;;;;;;;;;;;;4.48;100.00;97975.34;5064129;28;20303;-77
2021/05/06 18:14:17;;;;;;;;;;;;;;;4.52;100.00;97989.13;5076066;28;19964;-77
2021/05/06 18:16:58;;;;;;;;;;;;;;;4.56;100.00;97993.44;5066030;28;19925;-76
2021/05/06 18:19:43;;;;;;;;;;;;;;;4.56;100.00;97987.88;5063498;28;19925;-77
2021/05/06 18:22:28;;;;;;;;;;;;;;;4.59;100.00;97998.13;5065494;28;19920;-77
2021/05/06 18:25:15;;;;;;;;;;;;;;;4.61;100.00;98006.03;5070500;28;19920;-76
2021/05/06 18:27:59;;;;;;;;;;;;;;;4.60;100.00;98021.88;5064173;28;19927;-76
2021/05/06 18:30:38;;;;;;;;;;;;;;;4.58;100.00;98007.66;5067552;28;19935;-76
2021/05/06 18:33:17;;;;;;;;;;;;;;;4.58;100.00;98029.78;5067887;28;19920;-76
2021/05/06 18:35:56;;;;;;;;;;;;;;;4.53;100.00;98023.91;5067918;28;19955;-76
2021/05/06 18:38:31;;;;;;;;;;;;;;;4.51;100.00;98024.31;5077538;28;19943;-76
2021/05/06 18:40:59;;;;;;;;;;;;;;;4.54;100.00;98039.31;5080816;28;19934;-76
2021/05/06 18:43:26;;;;;;;;;;;;;;;4.52;100.00;98034.19;5085857;28;19955;-76
2021/05/06 18:45:55;;;;;;;;;;;;;;;4.41;100.00;97991.22;5083909;28;19960;-78
2021/05/06 18:48:23;;;;;;;;;;;;;;;4.37;100.00;98056.81;5091193;28;20425;-75
2021/05/06 18:50:52;;;;;;;;;;;;;;;4.36;100.00;98049.72;5088088;28;19965;-76
2021/05/06 18:53:20;;;;;;;;;;;;;;;4.39;100.00;98038.59;5070936;28;19924;-76
2021/05/06 18:55:46;;;;;;;;;;;;;;;4.41;100.00;98063.13;5072476;28;19927;-76
2021/05/06 18:58:14;;;;;;;;;;;;;;;4.45;100.00;98056.38;5115287;27;20303;-76
2021/05/06 19:00:42;;;;;;;;;;;;;;;4.48;100.00;98066.63;5083683;28;19928;-77
2021/05/06 19:03:10;;;;;;;;;;;;;;;4.51;100.00;98068.56;5068868;28;20019;-77
2021/05/06 19:05:44;;;;;;;;;;;;;;;4.52;100.00;98086.72;5074707;28;19920;-76
2021/05/06 19:08:14;;;;;;;;;;;;;;;4.53;100.00;98068.94;5066124;28;19920;-77
2021/05/06 19:11:06;;;;;;;;;;;;;;;4.54;100.00;98092.66;5070491;28;20011;-77
2021/05/06 19:13:51;;;;;;;;;;;;;;;4.56;100.00;98093.00;5072798;28;19951;-77